Time;durP1;ratioP1;P1;durP2;ratioP2;P2;SDS_P1;SDS_P2;PMS_P1;PMS_P2;Temp;Humidity;BMP_temperature;BMP_pressure;BME280_temperature;BME280_humidity;BME280_pressure;Samples;Min_cycle;Max_cycle;Signal;HPM_P1;HPM_P2
2022/09/20 00:01:20;;;;;;;8.20;2.20;;;11.30;99.90;;;;;;5153452;27;20038;-77
2022/09/20 00:03:47;;;;;;;10.13;2.30;;;11.20;99.90;;;;;;5159999;27;20034;-77
2022/09/20 00:06:17;;;;;;;9.73;2.30;;;11.10;99.90;;;;;;5132942;27;20039;-78
2022/09/20 00:08:43;;;;;;;11.13;2.38;;;11.10;99.90;;;;;;5120251;27;20038;-77
2022/09/20 00:11:18;;;;;;;13.65;2.25;;;11.10;99.90;;;;;;5153885;27;20096;-78
2022/09/20 00:13:45;;;;;;;9.38;2.00;;;11.00;99.90;;;;;;5161322;27;20138;-77
2022/09/20 00:16:14;;;;;;;13.73;2.78;;;11.00;99.90;;;;;;5167310;27;20122;-78
2022/09/20 00:18:40;;;;;;;13.48;2.40;;;11.10;99.90;;;;;;5159099;27;20113;-77
2022/09/20 00:21:06;;;;;;;9.38;2.20;;;10.90;99.90;;;;;;5161448;27;20130;-77
2022/09/20 00:23:32;;;;;;;9.45;2.47;;;11.10;99.90;;;;;;5152204;27;20039;-77
2022/09/20 00:26:00;;;;;;;13.35;2.33;;;10.80;99.90;;;;;;5134369;27;20045;-78
2022/09/20 00:28:27;;;;;;;8.75;2.10;;;10.80;99.90;;;;;;5159415;27;20035;-78
2022/09/20 00:30:53;;;;;;;9.85;2.03;;;10.80;99.90;;;;;;5126600;27;20045;-78
2022/09/20 00:33:21;;;;;;;11.05;2.75;;;10.80;99.90;;;;;;5159554;27;20050;-78
2022/09/20 00:35:46;;;;;;;5.55;1.88;;;12.00;99.90;;;;;;5161770;27;20532;-78
2022/09/20 00:38:13;;;;;;;6.47;2.20;;;10.70;99.90;;;;;;5159531;27;20046;-78
2022/09/20 00:40:44;;;;;;;13.52;2.58;;;10.70;99.90;;;;;;5178107;27;20124;-78
2022/09/20 00:43:16;;;;;;;8.73;2.20;;;10.70;99.90;;;;;;5177927;27;20453;-77
2022/09/20 00:45:46;;;;;;;7.47;2.03;;;10.60;99.90;;;;;;5174047;27;20436;-78
2022/09/20 00:48:28;;;;;;;10.00;2.17;;;10.60;99.90;;;;;;5122080;27;20112;-78
2022/09/20 00:50:58;;;;;;;7.60;2.10;;;10.60;99.90;;;;;;5153428;27;20054;-78
2022/09/20 00:53:27;;;;;;;9.40;2.20;;;10.50;99.90;;;;;;5157405;27;20094;-78
2022/09/20 00:56:01;;;;;;;7.10;1.73;;;10.50;99.90;;;;;;5159369;27;20489;-78
2022/09/20 00:58:29;;;;;;;14.05;1.98;;;10.50;99.90;;;;;;5177352;27;20050;-78
2022/09/20 01:00:57;;;;;;;10.98;2.00;;;10.40;99.90;;;;;;5174857;27;20042;-78
2022/09/20 01:03:26;;;;;;;9.90;2.47;;;10.40;99.90;;;;;;5148490;27;20042;-78
2022/09/20 01:05:53;;;;;;;10.68;2.15;;;10.40;99.90;;;;;;5138061;27;20046;-78
2022/09/20 01:08:23;;;;;;;6.18;1.70;;;10.40;99.90;;;;;;5157178;27;20111;-78
2022/09/20 01:10:49;;;;;;;8.68;1.98;;;10.30;99.90;;;;;;5172813;27;20480;-78
2022/09/20 01:13:15;;;;;;;14.77;2.38;;;10.40;99.90;;;;;;5160085;27;20039;-78
2022/09/20 01:15:42;;;;;;;11.02;2.33;;;10.30;99.90;;;;;;5147776;27;20065;-78
2022/09/20 01:18:09;;;;;;;9.07;2.63;;;10.30;99.90;;;;;;5169022;27;20046;-78
2022/09/20 01:20:37;;;;;;;8.82;2.65;;;11.20;99.90;;;;;;5175853;27;20066;-78
2022/09/20 01:23:15;;;;;;;9.00;2.20;;;10.20;99.90;;;;;;5156396;27;20057;-78
2022/09/20 01:26:13;;;;;;;9.65;2.20;;;10.20;99.90;;;;;;5157258;27;20068;-77
2022/09/20 01:28:44;;;;;;;10.18;2.30;;;10.20;99.90;;;;;;5158559;27;20074;-78
2022/09/20 01:31:21;;;;;;;8.57;2.05;;;10.50;99.90;;;;;;5147686;27;20047;-77
2022/09/20 01:33:57;;;;;;;7.10;2.05;;;10.10;99.90;;;;;;5136671;27;20407;-78
2022/09/20 01:36:44;;;;;;;8.18;2.25;;;10.10;99.90;;;;;;5156499;27;20049;-78
2022/09/20 01:39:11;;;;;;;12.65;2.08;;;10.10;99.90;;;;;;5139167;27;20053;-78
2022/09/20 01:41:50;;;;;;;9.98;2.17;;;10.20;99.90;;;;;;5121678;27;20105;-78
2022/09/20 01:44:46;;;;;;;9.05;2.20;;;10.10;99.90;;;;;;5147533;27;20054;-78
2022/09/20 01:47:30;;;;;;;11.40;2.08;;;10.10;99.90;;;;;;5138526;27;20050;-78
2022/09/20 01:50:09;;;;;;;9.23;2.70;;;10.00;99.90;;;;;;5166802;27;20042;-78
2022/09/20 01:53:29;;;;;;;13.38;2.42;;;10.00;99.90;;;;;;5163516;27;20095;-77
2022/09/20 01:56:30;;;;;;;16.80;2.60;;;10.00;99.90;;;;;;5074835;28;20131;-78
2022/09/20 01:59:23;;;;;;;9.82;2.58;;;10.00;99.90;;;;;;5157649;27;20038;-77
2022/09/20 02:01:52;;;;;;;8.20;2.42;;;10.00;99.90;;;;;;5176286;27;20114;-78
2022/09/20 02:04:55;;;;;;;9.88;2.88;;;10.00;99.90;;;;;;5164072;27;20071;-78
2022/09/20 02:07:53;;;;;;;6.55;2.03;;;10.00;99.90;;;;;;5136864;27;20043;-78
2022/09/20 02:10:37;;;;;;;6.03;1.95;;;10.00;99.90;;;;;;5154489;27;20065;-77
2022/09/20 02:13:52;;;;;;;9.43;2.80;;;9.90;99.90;;;;;;5119914;27;20446;-78
2022/09/20 02:16:18;;;;;;;11.77;2.83;;;9.80;99.90;;;;;;5087342;27;20043;-78
2022/09/20 02:19:10;;;;;;;9.50;2.58;;;9.80;99.90;;;;;;5142341;27;20035;-78
2022/09/20 02:22:13;;;;;;;10.32;2.60;;;9.70;99.90;;;;;;5149931;27;20034;-78
2022/09/20 02:25:00;;;;;;;10.15;2.67;;;9.70;99.90;;;;;;5156845;27;20478;-78
2022/09/20 02:27:43;;;;;;;10.40;2.67;;;9.70;99.90;;;;;;5176075;27;20061;-78
2022/09/20 02:30:19;;;;;;;9.85;2.45;;;9.70;99.90;;;;;;5154460;27;20039;-78
2022/09/20 02:33:04;;;;;;;;;;;10.10;99.90;;;;;;5136832;27;20047;-78
2022/09/20 02:35:58;;;;;;;11.40;2.50;;;9.70;99.90;;;;;;5155373;27;20305;-77
2022/09/20 02:38:39;;;;;;;10.75;2.45;;;9.70;99.90;;;;;;5141186;27;20042;-77
2022/09/20 02:41:16;;;;;;;7.80;2.10;;;9.80;99.90;;;;;;5146732;27;20061;-78
2022/09/20 02:44:14;;;;;;;10.30;2.30;;;9.70;99.90;;;;;;5135118;27;20065;-77
2022/09/20 02:47:07;;;;;;;10.90;2.17;;;9.70;99.90;;;;;;5135998;27;20039;-78
2022/09/20 02:49:52;;;;;;;9.25;2.28;;;9.70;99.90;;;;;;5168831;27;20034;-78
2022/09/20 02:52:46;;;;;;;6.15;2.10;;;9.70;99.90;;;;;;5157585;27;20042;-77
2022/09/20 02:55:15;;;;;;;13.02;2.13;;;9.70;99.90;;;;;;5137411;27;20081;-78
2022/09/20 02:57:53;;;;;;;9.25;2.17;;;9.70;99.90;;;;;;5136062;27;20498;-78
2022/09/20 03:00:23;;;;;;;9.52;2.47;;;9.70;99.90;;;;;;5154063;27;20047;-77
2022/09/20 03:03:08;;;;;;;7.82;1.98;;;9.70;99.90;;;;;;5128841;27;20042;-78
2022/09/20 03:05:50;;;;;;;12.38;1.98;;;9.70;99.90;;;;;;5153267;27;20045;-78
2022/09/20 03:08:37;;;;;;;6.78;2.10;;;9.70;99.90;;;;;;5136017;27;20046;-78
2022/09/20 03:11:18;;;;;;;9.63;2.33;;;9.70;99.90;;;;;;5155576;27;20431;-77
2022/09/20 03:13:59;;;;;;;10.95;2.97;;;10.00;99.90;;;;;;5154655;27;20043;-78
2022/09/20 03:16:45;;;;;;;13.63;2.13;;;9.80;99.90;;;;;;5158779;27;20394;-78
2022/09/20 03:19:50;;;;;;;8.75;2.20;;;9.60;99.90;;;;;;5135570;27;20046;-78
2022/09/20 03:22:27;;;;;;;13.65;2.50;;;9.60;99.90;;;;;;5170117;27;20513;-78
2022/09/20 03:25:05;;;;;;;5.85;1.90;;;10.50;99.90;;;;;;5139279;27;20053;-78
2022/09/20 03:27:54;;;;;;;9.07;1.92;;;9.70;99.90;;;;;;5174633;27;20041;-78
2022/09/20 03:30:28;;;;;;;8.38;2.00;;;9.70;99.90;;;;;;5138526;27;20049;-77
2022/09/20 03:33:04;;;;;;;11.10;1.85;;;9.70;99.90;;;;;;5173778;27;20049;-78
2022/09/20 03:35:57;;;;;;;9.00;2.10;;;9.70;99.90;;;;;;5156388;27;20054;-78
2022/09/20 03:38:35;;;;;;;6.93;2.30;;;9.70;99.90;;;;;;5156326;27;20106;-77
2022/09/20 03:41:22;;;;;;;7.47;2.00;;;9.60;99.90;;;;;;5141834;27;20050;-78
2022/09/20 03:44:04;;;;;;;10.55;2.08;;;9.60;99.90;;;;;;5155184;27;20124;-77
2022/09/20 03:46:44;;;;;;;11.90;1.95;;;9.70;99.90;;;;;;5137586;27;20050;-78
2022/09/20 03:49:49;;;;;;;6.05;2.00;;;9.70;99.90;;;;;;5144358;27;20042;-78
2022/09/20 03:52:18;;;;;;;9.55;2.30;;;9.70;99.90;;;;;;5156199;27;20043;-78
2022/09/20 03:54:54;;;;;;;10.27;2.10;;;9.70;99.90;;;;;;5168475;27;20042;-77
2022/09/20 03:57:38;;;;;;;7.97;2.33;;;9.70;99.90;;;;;;5156260;27;20042;-78
2022/09/20 04:00:13;;;;;;;6.13;1.80;;;9.70;99.90;;;;;;5174209;27;20045;-78
2022/09/20 04:03:00;;;;;;;6.60;1.90;;;9.70;99.90;;;;;;5177920;27;20043;-79
2022/09/20 04:05:49;;;;;;;7.00;1.90;;;9.70;99.90;;;;;;5137216;27;20130;-78
2022/09/20 04:08:34;;;;;;;6.75;2.38;;;9.70;99.90;;;;;;5156790;27;20061;-77
2022/09/20 04:11:08;;;;;;;9.55;2.00;;;9.70;99.90;;;;;;5138953;27;20085;-77
2022/09/20 04:13:36;;;;;;;9.07;2.53;;;9.70;99.90;;;;;;5124680;27;20386;-77
2022/09/20 04:16:13;;;;;;;12.27;2.40;;;9.80;99.90;;;;;;5176268;27;20034;-77
2022/09/20 04:19:03;;;;;;;9.07;2.10;;;9.70;99.90;;;;;;5162459;27;20087;-77
2022/09/20 04:21:34;;;;;;;10.95;2.42;;;9.80;99.90;;;;;;5176659;27;20398;-77
2022/09/20 04:24:00;;;;;;;7.78;2.05;;;9.80;99.90;;;;;;5137763;27;20175;-77
2022/09/20 04:26:29;;;;;;;6.53;2.10;;;9.80;99.90;;;;;;5138929;27;20444;-77
2022/09/20 04:29:02;;;;;;;8.63;2.00;;;9.80;99.90;;;;;;5139376;27;20038;-78
2022/09/20 04:31:51;;;;;;;10.98;2.50;;;9.80;99.90;;;;;;5125473;27;20054;-77
2022/09/20 04:36:27;;;;;;;10.90;2.00;;;9.90;99.90;;;;;;5157472;27;20124;-77
2022/09/20 04:37:42;;;;;;;7.55;2.42;;;9.90;99.90;;;;;;5162163;27;20048;-77
2022/09/20 04:40:42;;;;;;;8.35;2.10;;;9.90;99.90;;;;;;5164894;27;20038;-77
2022/09/20 04:43:34;;;;;;;7.50;2.30;;;9.90;99.90;;;;;;5157237;27;20077;-77
2022/09/20 04:46:34;;;;;;;9.20;2.40;;;10.00;99.90;;;;;;5138603;27;20046;-77
2022/09/20 04:49:38;;;;;;;13.00;2.30;;;10.00;99.90;;;;;;5161138;27;20483;-77
2022/09/20 04:52:18;;;;;;;7.05;2.30;;;10.00;99.90;;;;;;5159239;27;20046;-77
2022/09/20 04:55:23;;;;;;;9.82;2.10;;;10.10;99.90;;;;;;5163817;27;20038;-78
2022/09/20 04:57:52;;;;;;;7.65;1.92;;;10.10;99.90;;;;;;5137249;27;20598;-78
2022/09/20 05:00:20;;;;;;;9.13;2.10;;;10.70;99.90;;;;;;5156650;27;20039;-78
2022/09/20 05:02:52;;;;;;;8.63;1.98;;;10.50;99.90;;;;;;5151980;27;20491;-79
2022/09/20 05:05:39;;;;;;;7.53;1.98;;;10.20;99.90;;;;;;5165020;27;20371;-79
2022/09/20 05:08:16;;;;;;;6.65;2.08;;;10.30;99.90;;;;;;5177557;27;20050;-79
2022/09/20 05:10:53;;;;;;;7.28;1.90;;;10.30;99.90;;;;;;5158311;27;20394;-79
2022/09/20 05:13:53;;;;;;;9.02;2.20;;;10.20;99.90;;;;;;5154073;27;20039;-79
2022/09/20 05:16:40;;;;;;;8.13;2.08;;;10.30;99.90;;;;;;5168470;27;20136;-79
2022/09/20 05:19:30;;;;;;;6.00;1.77;;;10.30;99.90;;;;;;5120980;27;20064;-79
2022/09/20 05:22:28;;;;;;;9.13;2.50;;;10.30;99.90;;;;;;5150873;27;20407;-79
2022/09/20 05:25:31;;;;;;;6.13;1.90;;;10.40;99.90;;;;;;5135336;27;20051;-80
2022/09/20 05:28:20;;;;;;;8.70;2.13;;;10.40;99.90;;;;;;5117154;27;20135;-79
2022/09/20 05:30:54;;;;;;;9.60;2.17;;;10.50;99.90;;;;;;5148697;27;20117;-79
2022/09/20 05:33:47;;;;;;;7.20;2.20;;;10.50;99.90;;;;;;5175215;27;20043;-79
2022/09/20 05:36:28;;;;;;;7.70;2.10;;;10.50;99.90;;;;;;5158419;27;20038;-79
2022/09/20 05:39:05;;;;;;;8.32;2.00;;;10.50;99.90;;;;;;5176293;27;20049;-79
2022/09/20 05:41:41;;;;;;;8.13;2.33;;;10.60;99.90;;;;;;5169986;27;20042;-79
2022/09/20 05:44:39;;;;;;;8.52;2.15;;;10.50;99.90;;;;;;5144227;27;20046;-79
2022/09/20 05:47:43;;;;;;;8.60;3.08;;;10.60;99.90;;;;;;5146200;27;20046;-79
2022/09/20 05:50:30;;;;;;;5.15;1.90;;;10.60;99.90;;;;;;5154237;27;20098;-79
2022/09/20 05:53:28;;;;;;;8.23;2.00;;;10.60;99.90;;;;;;5157642;27;20078;-79
2022/09/20 05:56:02;;;;;;;7.78;2.40;;;10.60;99.90;;;;;;5109473;27;20139;-80
2022/09/20 05:59:05;;;;;;;8.32;2.08;;;10.60;99.90;;;;;;5156676;27;20109;-80
2022/09/20 06:01:41;;;;;;;9.70;2.00;;;10.60;99.90;;;;;;5155240;27;20079;-79
2022/09/20 06:04:16;;;;;;;13.70;2.40;;;10.60;99.90;;;;;;5138322;27;20035;-79
2022/09/20 06:07:00;;;;;;;6.03;1.88;;;10.60;99.90;;;;;;5155177;27;20047;-79
2022/09/20 06:09:32;;;;;;;7.85;2.17;;;10.60;99.90;;;;;;5140967;27;20053;-79
2022/09/20 06:12:01;;;;;;;9.52;2.65;;;10.70;99.90;;;;;;5155297;27;20042;-80
2022/09/20 06:14:47;;;;;;;11.10;2.13;;;10.70;99.90;;;;;;5155170;27;20399;-79
2022/09/20 06:17:25;;;;;;;7.75;2.08;;;10.70;99.90;;;;;;5154670;27;20039;-79
2022/09/20 06:20:09;;;;;;;5.85;1.80;;;10.80;99.90;;;;;;5136416;27;20046;-80
2022/09/20 06:22:46;;;;;;;6.53;2.10;;;10.90;99.90;;;;;;5143779;27;20035;-79
2022/09/20 06:25:30;;;;;;;7.05;2.13;;;11.50;99.90;;;;;;5149333;27;20152;-80
2022/09/20 06:28:11;;;;;;;7.18;2.08;;;11.00;99.90;;;;;;5098863;27;20038;-79
2022/09/20 06:30:45;;;;;;;6.38;2.10;;;11.10;99.90;;;;;;5099676;27;20051;-80
2022/09/20 06:33:25;;;;;;;9.60;2.20;;;11.20;99.90;;;;;;5154319;27;20103;-79
2022/09/20 06:41:25;;;;;;;7.25;1.90;;;11.30;99.90;;;;;;5135462;27;20050;-79
2022/09/20 06:41:51;;;;;;;5.55;1.77;;;11.40;99.90;;;;;;5135687;27;20055;-79
2022/09/20 06:44:17;;;;;;;7.03;1.90;;;11.50;99.90;;;;;;5154518;27;20045;-79
2022/09/20 06:46:42;;;;;;;8.65;1.98;;;11.40;99.90;;;;;;5154256;27;20114;-79
2022/09/20 06:49:08;;;;;;;7.53;1.80;;;11.50;99.90;;;;;;5154669;27;20053;-79
2022/09/20 06:51:37;;;;;;;5.18;1.92;;;11.50;99.90;;;;;;5154278;27;20122;-79
2022/09/20 06:54:05;;;;;;;6.65;2.08;;;11.50;99.90;;;;;;5136191;27;20043;-78
2022/09/20 06:56:35;;;;;;;7.10;2.00;;;11.40;99.90;;;;;;5135313;27;20053;-78
2022/09/20 06:59:01;;;;;;;8.63;1.80;;;11.50;99.90;;;;;;5154413;27;20039;-79
2022/09/20 07:01:27;;;;;;;6.50;1.88;;;11.50;99.90;;;;;;5118359;27;20086;-79
2022/09/20 07:03:52;;;;;;;8.52;1.63;;;11.50;99.90;;;;;;5135414;27;20097;-79
2022/09/20 07:06:18;;;;;;;5.28;1.75;;;11.50;99.90;;;;;;5153853;27;20043;-80
2022/09/20 07:08:45;;;;;;;6.13;1.50;;;11.50;99.90;;;;;;5154351;27;20045;-79
2022/09/20 07:11:16;;;;;;;5.13;1.70;;;11.50;99.90;;;;;;5129493;27;20499;-77
2022/09/20 07:13:43;;;;;;;8.18;1.80;;;11.60;99.90;;;;;;5153495;27;20050;-77
2022/09/20 07:16:13;;;;;;;6.35;2.03;;;11.60;99.90;;;;;;5153452;27;20038;-80
2022/09/20 07:18:40;;;;;;;5.68;1.80;;;11.90;99.90;;;;;;5135696;27;20036;-78
2022/09/20 07:21:13;;;;;;;7.25;2.00;;;11.80;99.90;;;;;;5153905;27;20509;-78
2022/09/20 07:23:38;;;;;;;4.00;1.50;;;11.90;99.90;;;;;;5118437;27;20159;-78
2022/09/20 07:26:04;;;;;;;6.93;1.92;;;12.00;99.90;;;;;;5153720;27;20546;-79
2022/09/20 07:28:33;;;;;;;5.15;1.80;;;12.20;99.90;;;;;;5154119;27;20180;-79
2022/09/20 07:30:58;;;;;;;5.43;1.95;;;12.40;99.90;;;;;;5153533;27;20045;-78
2022/09/20 07:33:24;;;;;;;8.63;2.00;;;13.00;99.90;;;;;;5153560;27;20035;-77
2022/09/20 07:35:54;;;;;;;6.70;1.90;;;12.80;99.90;;;;;;5133930;27;20046;-80
2022/09/20 07:38:21;;;;;;;7.68;2.00;;;13.10;99.90;;;;;;5135505;27;20118;-79
2022/09/20 07:40:55;;;;;;;5.47;2.00;;;13.30;99.90;;;;;;5153492;27;20486;-79
2022/09/20 07:43:21;;;;;;;6.53;1.85;;;13.50;99.90;;;;;;5154019;27;20406;-79
2022/09/20 07:45:53;;;;;;;8.10;2.80;;;14.40;99.90;;;;;;5153718;27;20368;-80
2022/09/20 07:48:19;;;;;;;7.15;2.33;;;14.10;99.90;;;;;;5154060;27;20042;-79
2022/09/20 07:50:56;;;;;;;8.20;3.05;;;14.40;99.90;;;;;;5124210;28;20391;-79
2022/09/20 07:53:22;;;;;;;6.65;2.60;;;14.80;99.90;;;;;;5132955;28;20155;-79
2022/09/20 07:56:11;;;;;;;10.63;2.33;;;14.70;99.90;;;;;;5132993;28;20047;-79
2022/09/20 07:58:37;;;;;;;7.65;2.22;;;14.80;99.90;;;;;;5114501;28;20134;-79
2022/09/20 08:01:05;;;;;;;8.05;2.22;;;15.40;99.90;;;;;;5114478;28;20131;-79
2022/09/20 08:03:32;;;;;;;5.53;1.58;;;15.20;99.90;;;;;;5133468;28;20073;-80
2022/09/20 08:06:20;;;;;;;6.60;2.00;;;15.40;99.90;;;;;;5133013;28;20067;-79
2022/09/20 08:08:46;;;;;;;5.25;1.50;;;15.60;99.90;;;;;;5097706;28;20130;-79
2022/09/20 08:11:15;;;;;;;4.47;1.60;;;16.30;99.90;;;;;;5132917;28;20039;-79
2022/09/20 08:13:46;;;;;;;4.78;1.83;;;15.90;99.90;;;;;;5131733;27;20035;-80
2022/09/20 08:16:13;;;;;;;6.55;1.65;;;16.10;99.90;;;;;;5114371;28;20126;-79
2022/09/20 08:18:45;;;;;;;3.13;1.63;;;16.30;99.90;;;;;;5114882;28;20084;-80
2022/09/20 08:21:11;;;;;;;7.95;1.52;;;16.60;99.90;;;;;;5148466;27;20085;-79
2022/09/20 08:23:39;;;;;;;9.60;1.60;;;16.70;99.90;;;;;;5132538;28;20503;-78
2022/09/20 08:26:07;;;;;;;8.88;1.85;;;16.80;99.90;;;;;;5132363;28;20074;-78
2022/09/20 08:28:33;;;;;;;5.28;1.40;;;16.90;99.90;;;;;;5132740;28;20039;-78
2022/09/20 08:31:02;;;;;;;8.88;1.58;;;17.00;99.90;;;;;;5128787;27;20099;-79
2022/09/20 08:33:27;;;;;;;6.18;1.40;;;17.20;99.90;;;;;;5133059;27;20055;-78
2022/09/20 08:35:53;;;;;;;7.28;1.58;;;17.60;99.90;;;;;;5132448;28;20387;-78
2022/09/20 08:38:21;;;;;;;4.97;1.58;;;17.70;99.90;;;;;;5132457;27;20520;-78
2022/09/20 08:40:48;;;;;;;7.75;1.50;;;18.30;99.90;;;;;;5135070;27;20399;-78
2022/09/20 08:43:14;;;;;;;4.60;1.40;;;18.30;99.90;;;;;;5123250;27;20035;-79
2022/09/20 08:45:40;;;;;;;13.13;2.05;;;18.60;99.90;;;;;;5138737;27;20080;-78
2022/09/20 08:48:12;;;;;;;7.72;1.40;;;18.60;99.90;;;;;;5151044;27;20035;-79
2022/09/20 08:50:38;;;;;;;6.28;1.50;;;18.70;99.90;;;;;;5144397;27;20039;-78
2022/09/20 08:53:04;;;;;;;6.45;1.73;;;18.60;99.90;;;;;;5155112;27;20051;-79
2022/09/20 08:55:31;;;;;;;5.50;1.40;;;18.00;99.90;;;;;;5157514;27;20067;-78
2022/09/20 08:57:58;;;;;;;6.43;1.52;;;18.00;99.90;;;;;;5131164;27;20097;-78
2022/09/20 09:00:32;;;;;;;4.15;1.25;;;18.10;99.90;;;;;;5118596;27;20043;-78
2022/09/20 09:03:04;;;;;;;2.00;0.88;;;18.30;99.90;;;;;;5102635;27;20049;-77
2022/09/20 09:05:34;;;;;;;2.92;1.10;;;18.80;99.90;;;;;;5130219;27;20049;-78
2022/09/20 09:08:09;;;;;;;6.53;1.35;;;18.90;99.90;;;;;;5138279;27;20038;-78
2022/09/20 09:10:39;;;;;;;4.37;1.20;;;19.20;99.90;;;;;;5155680;27;20039;-78
2022/09/20 09:13:05;;;;;;;4.47;1.50;;;19.70;99.90;;;;;;5135412;27;20043;-78
2022/09/20 09:15:35;;;;;;;5.07;1.65;;;20.00;99.90;;;;;;5135448;27;20209;-78
2022/09/20 09:18:00;;;;;;;6.55;1.20;;;20.40;99.90;;;;;;5135780;27;20149;-78
2022/09/20 09:20:26;;;;;;;4.07;1.00;;;20.60;99.90;;;;;;5133929;27;20039;-78
2022/09/20 09:23:07;;;;;;;5.22;1.58;;;20.60;99.90;;;;;;5135050;27;20043;-78
2022/09/20 09:25:38;;;;;;;4.28;1.13;;;20.50;99.80;;;;;;5135296;27;20050;-78
2022/09/20 09:28:06;;;;;;;4.40;1.00;;;20.30;99.30;;;;;;5117323;27;20047;-78
2022/09/20 09:30:38;;;;;;;3.80;1.05;;;20.20;98.70;;;;;;5148271;27;20483;-78
2022/09/20 09:33:28;;;;;;;4.80;1.27;;;20.20;99.00;;;;;;5147088;27;20046;-78
2022/09/20 09:36:22;;;;;;;3.47;1.00;;;20.10;98.20;;;;;;5133718;27;20047;-78
2022/09/20 09:38:48;;;;;;;3.72;1.30;;;20.10;98.20;;;;;;5126223;27;20052;-78
2022/09/20 09:41:25;;;;;;;3.50;1.10;;;20.20;98.30;;;;;;5150922;27;20054;-78
2022/09/20 09:44:21;;;;;;;5.28;1.30;;;20.20;98.40;;;;;;5156153;27;20092;-78
2022/09/20 09:46:50;;;;;;;5.45;1.70;;;20.20;98.30;;;;;;5155815;27;20095;-78
2022/09/20 09:49:16;;;;;;;5.03;1.38;;;20.10;98.10;;;;;;5137038;27;20087;-78
2022/09/20 09:52:00;;;;;;;4.68;1.20;;;20.00;97.60;;;;;;5155235;27;20042;-78
2022/09/20 09:54:34;;;;;;;6.05;1.40;;;19.80;98.30;;;;;;5137610;27;20043;-78
2022/09/20 09:57:14;;;;;;;6.05;1.48;;;19.70;97.90;;;;;;5155554;27;20053;-79
2022/09/20 09:59:59;;;;;;;5.55;1.33;;;19.60;98.30;;;;;;5137156;27;20054;-79
2022/09/20 10:02:46;;;;;;;4.32;1.27;;;19.50;97.80;;;;;;5144586;27;20111;-79
2022/09/20 10:05:20;;;;;;;5.57;1.30;;;19.40;98.30;;;;;;5154290;27;20037;-79
2022/09/20 10:08:03;;;;;;;3.25;1.27;;;19.40;98.40;;;;;;5152594;27;20042;-82
2022/09/20 10:11:07;;;;;;;6.93;1.40;;;19.50;98.50;;;;;;5153075;27;20081;-82
2022/09/20 10:14:04;;;;;;;2.42;1.15;;;19.60;98.20;;;;;;5152189;27;20486;-82
2022/09/20 10:17:07;;;;;;;4.90;1.40;;;19.60;98.50;;;;;;5116355;27;20046;-82
2022/09/20 10:20:06;;;;;;;6.40;1.40;;;19.70;98.50;;;;;;5152762;27;20403;-82
2022/09/20 10:22:50;;;;;;;7.07;1.70;;;19.80;98.30;;;;;;5172178;27;20054;-83
2022/09/20 10:25:39;;;;;;;5.65;1.40;;;19.90;98.30;;;;;;5137308;27;20038;-80
2022/09/20 10:28:19;;;;;;;8.23;1.30;;;19.90;98.20;;;;;;5173133;27;20520;-81
2022/09/20 10:31:02;;;;;;;5.57;1.73;;;20.00;98.20;;;;;;5157133;27;20054;-83
2022/09/20 10:33:37;;;;;;;5.82;1.40;;;20.00;97.70;;;;;;5134175;27;20051;-80
2022/09/20 10:36:19;;;;;;;7.53;1.70;;;19.90;97.80;;;;;;5149441;27;20042;-80
2022/09/20 10:39:10;;;;;;;6.03;1.52;;;20.00;97.70;;;;;;5154286;27;20459;-81
2022/09/20 10:44:38;;;;;;;9.13;1.90;;;20.40;98.20;;;;;;5161321;27;20054;-82
2022/09/20 10:47:12;;;;;;;4.47;1.35;;;20.90;98.20;;;;;;5171240;27;20135;-83
2022/09/20 10:49:56;;;;;;;6.23;1.57;;;21.10;97.90;;;;;;5168819;27;20030;-83
2022/09/20 10:52:30;;;;;;;6.10;1.48;;;21.30;96.50;;;;;;5161957;27;20083;-82
2022/09/20 10:55:20;;;;;;;5.50;1.40;;;21.10;96.40;;;;;;5131075;27;20051;-81
2022/09/20 10:58:19;;;;;;;7.28;1.80;;;20.70;97.00;;;;;;5131162;27;20047;-81
2022/09/20 11:00:51;;;;;;;5.80;1.48;;;20.60;97.00;;;;;;5130904;27;20031;-83
2022/09/20 11:03:26;;;;;;;4.55;1.67;;;20.40;96.40;;;;;;5095612;27;20116;-82
2022/09/20 11:06:06;;;;;;;7.23;1.80;;;20.10;96.70;;;;;;5138512;27;20082;-83
2022/09/20 11:08:35;;;;;;;8.50;1.70;;;19.90;97.20;;;;;;5133224;27;20078;-82
2022/09/20 11:11:26;;;;;;;9.15;1.92;;;20.10;97.30;;;;;;5151143;27;20405;-82
2022/09/20 11:14:10;;;;;;;8.65;1.60;;;19.90;97.20;;;;;;5110214;27;20058;-82
2022/09/20 11:16:36;;;;;;;7.72;1.58;;;19.90;96.90;;;;;;5150751;27;20054;-80
2022/09/20 11:19:43;;;;;;;6.47;1.60;;;20.00;96.40;;;;;;5150901;27;20038;-82
2022/09/20 11:22:21;;;;;;;5.47;1.58;;;20.50;96.60;;;;;;5111080;27;20086;-82
2022/09/20 11:24:59;;;;;;;6.85;1.70;;;20.80;96.20;;;;;;5135209;27;20042;-76
2022/09/20 11:27:44;;;;;;;6.50;1.92;;;21.30;95.30;;;;;;5128485;27;20034;-76
2022/09/20 11:30:18;;;;;;;;;;;21.80;94.70;;;;;;5144043;27;20122;-76
2022/09/20 11:33:06;;;;;;;5.35;1.63;;;22.20;93.90;;;;;;5150576;27;19926;-76
2022/09/20 11:35:33;;;;;;;4.10;1.20;;;22.50;92.80;;;;;;5161794;27;20444;-76
2022/09/20 11:38:30;;;;;;;6.22;1.40;;;22.90;92.30;;;;;;5147920;27;20047;-76
2022/09/20 11:41:14;;;;;;;5.38;1.25;;;23.40;91.60;;;;;;5136228;27;20475;-76
2022/09/20 11:43:43;;;;;;;4.68;1.30;;;23.70;90.90;;;;;;5134572;27;20126;-76
2022/09/20 11:46:19;;;;;;;4.15;1.52;;;24.10;91.10;;;;;;5132864;28;20506;-77
2022/09/20 11:48:49;;;;;;;5.70;1.48;;;24.50;90.10;;;;;;5167507;27;20043;-76
2022/09/20 11:51:52;;;;;;;6.68;1.50;;;24.80;88.40;;;;;;5153268;27;20398;-76
2022/09/20 11:54:27;;;;;;;5.32;1.50;;;24.60;87.50;;;;;;5135051;27;20054;-76
2022/09/20 11:56:55;;;;;;;6.90;1.60;;;24.40;88.20;;;;;;5153225;27;20035;-77
2022/09/20 11:59:32;;;;;;;6.88;1.40;;;24.40;90.10;;;;;;5153971;27;20086;-77
2022/09/20 12:02:00;;;;;;;7.40;1.40;;;24.40;90.00;;;;;;5153429;27;20099;-77
2022/09/20 12:04:30;;;;;;;7.20;1.58;;;24.10;88.80;;;;;;5153777;27;20039;-76
2022/09/20 12:07:03;;;;;;;6.85;1.70;;;23.60;90.10;;;;;;5135098;27;20042;-75
2022/09/20 12:09:37;;;;;;;5.93;1.60;;;22.90;90.80;;;;;;5153889;27;20045;-76
2022/09/20 12:12:31;;;;;;;6.25;1.60;;;22.50;90.80;;;;;;5121710;27;20049;-76
2022/09/20 12:15:03;;;;;;;5.82;1.50;;;21.90;91.40;;;;;;5132493;28;20047;-76
2022/09/20 12:18:03;;;;;;;7.90;1.70;;;21.40;92.10;;;;;;5133439;27;20377;-75
2022/09/20 12:20:32;;;;;;;6.55;1.55;;;21.10;92.80;;;;;;5131376;27;20035;-78
2022/09/20 12:23:35;;;;;;;7.75;1.80;;;21.00;92.60;;;;;;5170292;27;20042;-75
2022/09/20 12:26:15;;;;;;;6.00;1.38;;;20.70;92.80;;;;;;5160304;27;20038;-76
2022/09/20 12:28:49;;;;;;;9.65;1.85;;;20.60;93.00;;;;;;5176133;27;20049;-76
2022/09/20 12:31:17;;;;;;;6.18;1.70;;;20.50;93.30;;;;;;5158647;27;20050;-76
2022/09/20 12:34:11;;;;;;;6.45;1.73;;;20.60;93.40;;;;;;5143441;27;20055;-76
2022/09/20 12:36:42;;;;;;;5.47;1.20;;;20.70;93.40;;;;;;5157826;27;20308;-76
2022/09/20 12:39:11;;;;;;;5.38;1.10;;;21.00;93.00;;;;;;5156966;27;20077;-76
2022/09/20 12:41:53;;;;;;;6.47;1.42;;;21.20;92.50;;;;;;5138223;27;20542;-76
2022/09/20 12:44:33;;;;;;;5.80;1.40;;;21.40;92.10;;;;;;5139568;27;20042;-76
2022/09/20 12:47:07;;;;;;;5.20;1.30;;;21.50;92.50;;;;;;5138603;27;20490;-76
2022/09/20 12:52:59;;;;;;;3.67;1.17;;;21.70;92.00;;;;;;5156706;27;20126;-76
2022/09/20 12:55:39;;;;;;;6.90;1.40;;;21.80;91.70;;;;;;5156463;27;20057;-77
2022/09/20 12:58:10;;;;;;;5.95;1.40;;;21.80;91.80;;;;;;5156958;27;20038;-77
2022/09/20 13:00:56;;;;;;;4.30;1.20;;;21.80;91.90;;;;;;5157557;27;20053;-76
2022/09/20 13:03:36;;;;;;;7.03;1.55;;;21.90;92.20;;;;;;5150415;27;20035;-77
2022/09/20 13:06:05;;;;;;;5.50;1.30;;;21.90;92.60;;;;;;5134190;27;20035;-77
2022/09/20 13:08:38;;;;;;;7.22;1.40;;;21.80;92.70;;;;;;5157130;27;20502;-77
2022/09/20 13:11:11;;;;;;;4.38;1.30;;;22.00;92.50;;;;;;5165269;27;20049;-77
2022/09/20 13:14:18;;;;;;;4.93;1.20;;;21.50;92.60;;;;;;5169345;27;20480;-77
2022/09/20 13:16:58;;;;;;;5.63;1.40;;;21.30;93.10;;;;;;5164539;27;20035;-76
2022/09/20 13:19:32;;;;;;;5.97;1.42;;;21.30;93.20;;;;;;5155457;27;20465;-75
2022/09/20 13:22:08;;;;;;;6.18;1.70;;;21.30;93.40;;;;;;5163906;27;20094;-75
2022/09/20 13:24:40;;;;;;;6.68;1.70;;;21.30;94.00;;;;;;5154647;27;20368;-75
2022/09/20 13:27:12;;;;;;;6.13;1.50;;;21.20;94.30;;;;;;5155050;27;20096;-76
2022/09/20 13:29:43;;;;;;;4.72;1.30;;;21.60;94.30;;;;;;5165327;27;20466;-77
2022/09/20 13:32:29;;;;;;;4.88;1.40;;;21.20;94.20;;;;;;5158094;27;20386;-75
2022/09/20 13:35:17;;;;;;;5.20;1.38;;;21.20;94.30;;;;;;5176397;27;20051;-72
2022/09/20 13:37:58;;;;;;;5.85;1.67;;;21.10;94.30;;;;;;5175474;27;20118;-77
2022/09/20 13:40:35;;;;;;;5.57;1.20;;;21.00;94.70;;;;;;5176598;27;20046;-75
2022/09/20 13:43:05;;;;;;;5.50;1.40;;;21.00;94.50;;;;;;5148561;27;20491;-76
2022/09/20 13:45:31;;;;;;;9.20;1.60;;;21.10;94.40;;;;;;5153505;27;20046;-76
2022/09/20 13:48:00;;;;;;;6.07;1.40;;;21.10;94.00;;;;;;5176280;27;20038;-76
2022/09/20 13:50:25;;;;;;;5.32;1.40;;;21.10;94.40;;;;;;5176055;27;20097;-77
2022/09/20 13:53:00;;;;;;;5.05;1.48;;;21.20;94.00;;;;;;5157604;27;20494;-76